Tiempo atmosférico en la estación meteorológica de Menorca Aeropuerto, Illes Balears (91 m.)



Fecha
DESCASC
Temp. máxima en grados centígrados (hora)
DESCASC
Temp. mínima en grados centígrados (hora)
DESCASC
Temp. media en grados centígrados
DESCASC
Racha de viento máxima en m/sg (hora)
DESCASC
Velocidad máxima media en intervalos de 10 minutos(hora)
DESCASC
Precipitaciones diarias en mm
DESCASC
Precipitaciones de 00:00 a 06:00 en mm
DESCASC
Precipitaciones de 06:00 a 12:00 en mm
DESCASC
Precipitaciones de 12:00 a 18:00 en mm
DESCASC
Precipitaciones de 18:00 a 24:00 en mm
DESCASC

Gráficas

Temp. máximas Temp. mínimas Temp. medias Precipitaciones Rachas de viento máximas Velocidades máximas media en intervalos de 10 minutos

Datos horarios

Fecha y hora oficial Temperatura (ºC) Velocidad del viento (km/h) Dirección del viento Racha (km/h) Dirección de racha Precipitación (mm) Presión (hPa) Tendencia (hPa) Humedad (%)
2019-05-25 23:00:00 16.9 26 Norte 41 Norte 0 1005.7 1.3 81
2019-05-25 22:00:00 16.5 23 Norte 35 Norte 0 1005.5 1.5 84
2019-05-25 21:00:00 16.5 26 Norte 35 Norte 0 1004.8 0.7 85
2019-05-25 20:00:00 17.1 23 Norte 35 Norte 0 1004.4 0.4 78
2019-05-25 19:00:00 18.6 26 Norte 45 Norte 0 1004 -0.4 70
2019-05-25 18:00:00 18.5 29 Norte 41 Norte 0 1004.1 -0.7 72
2019-05-25 17:00:00 18.6 28 Norte 42 Norte 0 1004 -0.9 73
2019-05-25 16:00:00 18.7 30 Norte 45 Norte 0 1004.4 -0.7 71
2019-05-25 15:00:00 20.1 30 Norte 45 Norte 0 1004.8 -0.2 66
2019-05-25 14:00:00 19.5 28 Norte 41 Norte 0 1004.9 0 69
2019-05-25 13:00:00 17.9 24 Norte 35 Norte 0 1005.1 0.4 78
2019-05-25 12:00:00 18.7 25 Norte 39 Norte 0 1005 0.8 76
2019-05-25 11:00:00 18.5 24 Norte 39 Norte 0 1004.9 1.2 75
2019-05-25 10:00:00 17.2 27 Norte 39 Norte 0 1004.7 1.2 77
2019-05-25 09:00:00 17.8 27 Norte 35 Norte 0 1004.2 1 74
2019-05-25 08:00:00 16.8 23 Norte 30 Norte 0 1003.7 0.6 77
2019-05-25 07:00:00 15.9 13 Norte 18 Norte 0 1003.5 0.2 83
2019-05-25 06:00:00 15.5 12 Norte 24 Norte 0 1003.2 -0.3 85
2019-05-25 05:00:00 15.7 17 Norte 24 Norte 0 1003.1 -0.8 82
2019-05-25 04:00:00 15.8 17 Nordeste 22 Nordeste 0 1003.3 -1 79
2019-05-25 03:00:00 15.7 19 Nordeste 26 Nordeste 0 1003.5 -0.9 79
2019-05-25 02:00:00 15.9 19 Norte 26 Nordeste 0 1003.9 -0.7 79
2019-05-25 01:00:00 15.9 18 Nordeste 24 Nordeste 0 1004.3 -0.1 79
2019-05-25 00:00:00 16 17 Nordeste 26 Nordeste 0 1004.4 -0.1 84
2019-05-24 23:00:00 16.3 15 Nordeste 21 Nordeste 0 1004.6 0.1 87
2019-05-24 22:00:00 16.3 13 Nordeste 22 Nordeste 0 1004.4 -0.1 89
2019-05-24 21:00:00 16.5 17 Nordeste 26 Norte 0 1004.5 0 88
2019-05-24 20:00:00 17.1 17 Nordeste 26 Nordeste 0 1004.5 -0.1 76
2019-05-24 19:00:00 17.3 19 Nordeste 30 Nordeste 0 1004.5 -0.4 84
2019-05-24 18:00:00 17.7 20 Nordeste 32 Nordeste 0 1004.5 -0.6 84
2019-05-24 17:00:00 19.2 22 Nordeste 32 Nordeste 0 1004.6 -0.5 68
2019-05-24 16:00:00 20.7 18 Nordeste 28 Nordeste 0 1004.9 -0.2 50
2019-05-24 15:00:00 21.4 16 Norte 28 Nordeste 0 1005.1 -0.1 44
2019-05-24 14:00:00 23.2 14 Oeste 24 Sudoeste 0 1005.1 0.1 36
2019-05-24 13:00:00 24.3 13 Sur 22 Sur 0 1005.1 0.1 30
2019-05-24 12:00:00 23.8 13 Sudoeste 18 Sudoeste 0 1005.2 0.3 31
2019-05-24 11:00:00 24.4 6 Sudoeste 17 Sudoeste 0 1005 0 26
2019-05-24 10:00:00 22.4 10 Sudoeste 15 Sudoeste 0 1005 -0.1 32
2019-05-24 09:00:00 21 6 Sudoeste 11 Sudoeste 0 1004.9 -0.1 49
2019-05-24 08:00:00 18 5 Sur 8 Sur 0 1005 -0.2 87
2019-05-24 07:00:00 12.2 7 Sudoeste -- -- 0 1005.1 -0.3 93
2019-05-24 06:00:00 10.4 7 Sudoeste -- -- 0 1005 -0.8 91
2019-05-24 05:00:00 11.3 4 Sur 5 Sur 0 1005.2 -0.9 91
2019-05-24 04:00:00 13.1 4 Sur 9 Sudoeste 0 1005.4 -1.4 92
2019-05-24 03:00:00 12.9 8 Sudoeste -- -- 0 1005.8 -1.2 91
2019-05-24 02:00:00 12.7 7 Sudoeste -- -- 0 1006.1 -1 90
2019-05-24 01:00:00 -- -- -- -- -- 0 1006.8 -0.4 --
2019-05-24 00:00:00 -- 8 Sudoeste 13 Sur 0 1007 -0.1 --
2019-05-23 23:00:00 16 9 Sur 13 Sudoeste 0 1007.1 0.3 86
2019-05-23 22:00:00 17.2 10 Sudoeste 18 Sur 0 1007.2 0.4 82
2019-05-23 21:00:00 18.1 13 Sur 22 Sur 0 1007.1 -0.1 77
2019-05-23 20:00:00 19.1 17 Sur 26 Sur 0 1006.8 -0.6 72
2019-05-23 19:00:00 21.2 19 Sur 26 Sur 0 1006.8 -0.9 59
2019-05-23 18:00:00 22.2 17 Sur 28 Sur 0 1007.2 -0.9 47
2019-05-23 17:00:00 23.2 17 Sur 26 Sudoeste 0 1007.4 -1.1 43
2019-05-23 16:00:00 23 17 Sudoeste 24 Sudoeste 0 1007.7 -1.2 40
2019-05-23 15:00:00 23.5 14 Sudoeste 24 Sudoeste 0 1008.1 -1.2 38
2019-05-23 14:00:00 23.8 16 Sur 22 Sur 0 1008.5 -0.8 43
2019-05-23 13:00:00 23.2 14 Sudoeste 24 Oeste 0 1008.9 -0.3 37
2019-05-23 12:00:00 22.7 15 Sudoeste 22 Sudoeste 0 1009.3 0.4 43
2019-05-23 11:00:00 22.1 12 Sudoeste 21 Oeste 0 1009.3 1 40
2019-05-23 10:00:00 21 12 Sudoeste 18 Sudoeste 0 1009.2 1.1 47
2019-05-23 09:00:00 19.1 10 Oeste 15 Oeste 0 1008.9 0.8 72
2019-05-23 08:00:00 17.5 8 Sudoeste 15 Sudoeste 0 1008.3 0.1 91
2019-05-23 07:00:00 15.1 12 Sudoeste 13 Sudoeste 0 1008.1 -0.2 96
2019-05-23 06:00:00 13.5 10 Oeste 11 Oeste 0 1008.1 -0.4 95
2019-05-23 05:00:00 15 10 Oeste 13 Oeste 0 1008.2 -0.6 95
2019-05-23 04:00:00 15.3 11 Sudoeste 17 Sudoeste 0 1008.3 -0.9 94
2019-05-23 03:00:00 15.5 13 Sudoeste 18 Sudoeste 0 1008.5 -0.8 93
2019-05-23 02:00:00 15.4 12 Sudoeste 17 Sudoeste 0 1008.8 -0.8 91
2019-05-23 01:00:00 15.8 13 Sudoeste 18 Sudoeste 0 1009.2 0.2 91
2019-05-23 00:00:00 15.8 12 Sudoeste 15 Sudoeste 0 1009.3 0.6 90
2019-05-22 23:00:00 15.3 10 Sudoeste 13 Sudoeste 0 1009.6 1.4 86
2019-05-22 22:00:00 16 9 Sur 15 Sur 0 1009 0.9 80
2019-05-22 21:00:00 17.7 10 Sur 18 Sur 0 1008.7 0.7 71
2019-05-22 20:00:00 20.3 12 Sur 18 Sur 0 1008.2 0 62
2019-05-22 19:00:00 21.1 14 Sur 22 Sur 0 1008.1 -0.3 56
2019-05-22 18:00:00 21.9 15 Sur 24 Sudeste 0 1008 -0.6 49
2019-05-22 17:00:00 22.8 15 Sur 26 Sur 0 1008.2 -0.6 49
2019-05-22 16:00:00 23.2 17 Sur 26 Sur 0 1008.4 -0.5 48
2019-05-22 15:00:00 23.9 10 Sudeste 26 Este 0 1008.6 -0.3 36
2019-05-22 14:00:00 23.5 13 Este 26 Este 0 1008.8 0.3 37
2019-05-22 13:00:00 22.7 10 Este 22 Este 0 1008.9 0.6 40
2019-05-22 12:00:00 22 12 Este 22 Este 0 1008.9 0.8 43
2019-05-22 11:00:00 23.2 12 Nordeste 24 Este 0 1008.5 0.8 32
2019-05-22 10:00:00 21.7 12 Nordeste 18 Nordeste 0 1008.3 0.7 48
2019-05-22 09:00:00 18.9 7 Norte 13 Norte 0 1008.1 0.7 73
2019-05-22 08:00:00 16.9 6 Noroeste 11 Oeste 0 1007.7 0.2 91
2019-05-22 07:00:00 12.3 8 Oeste -- -- 0 1007.6 0.1 95
2019-05-22 06:00:00 10.3 8 Sudoeste -- -- 0 1007.4 -0.1 93
2019-05-22 05:00:00 10.5 -- -- -- -- 0 1007.5 0 92
2019-05-22 04:00:00 11.6 5 Oeste -- -- 0 1007.5 -0.2 93
2019-05-22 03:00:00 11 8 Sudoeste -- -- 0 1007.5 -0.2 91
2019-05-22 02:00:00 12.4 5 Oeste 8 Oeste 0 1007.5 -0.2 92
2019-05-22 01:00:00 12.3 6 Sudoeste 9 Sudoeste 0 1007.7 0.5 89
2019-05-22 00:00:00 13.7 6 Sudoeste 13 Sur 0 1007.7 0.8 88
2019-05-21 23:00:00 14.3 11 Sur 17 Sur 0 1007.7 0.9 85
2019-05-21 22:00:00 15.7 9 Sur 13 Sur 0 1007.2 0.6 80
2019-05-21 21:00:00 16.5 8 Sur 21 Sudeste 0 1006.9 0.3 71
2019-05-21 20:00:00 18.6 17 Sudeste 26 Sudeste 0 1006.8 0.2 61
2019-05-21 19:00:00 18.4 16 Sur 26 Sudeste 0 1006.6 -0.1 65
2019-05-21 18:00:00 20.1 16 Sudeste 24 Sur 0 1006.6 0 46
2019-05-21 17:00:00 21.9 15 Sudeste 26 Sur 0 1006.6 0.3 44
2019-05-21 16:00:00 21.8 17 Sur 28 Sur 0 1006.7 0.5 46
2019-05-21 15:00:00 22.1 17 Sur 30 Sur 0 1006.6 0.4 38
2019-05-21 14:00:00 22.1 18 Sudeste 30 Sur 0 1006.3 0.1 37
2019-05-21 13:00:00 22.3 18 Sur 28 Sur 0 1006.2 0.1 35
2019-05-21 12:00:00 22.2 14 Este 24 Sudeste 0 1006.2 0.2 36
2019-05-21 11:00:00 20.8 11 Sur 21 Sur 0 1006.2 0.5 55
2019-05-21 10:00:00 20.8 6 Nordeste 13 Sudeste 0 1006.1 0.8 44
2019-05-21 09:00:00 18.5 5 Norte 11 Norte 0 1006 1.2 56
2019-05-21 08:00:00 16 5 Noroeste 9 Oeste 0 1005.7 1.1 85
2019-05-21 07:00:00 10.5 8 Sudoeste -- -- 0 1005.3 0.8 93
2019-05-21 06:00:00 9.4 6 Oeste 13 Oeste 0 1004.8 0.3 93
2019-05-21 05:00:00 8.8 9 Oeste 11 Oeste 0 1004.6 -0.2 91
2019-05-21 04:00:00 10 2 Norte 9 Norte 0 1004.5 -0.6 91
2019-05-21 03:00:00 11.2 10 Norte 15 Norte 0 1004.5 -0.5 91
2019-05-21 02:00:00 11.5 8 Nordeste 15 Norte 0 1004.8 -0.2 90
2019-05-21 01:00:00 11.4 11 Norte 15 Norte 0 1005.1 0.6 86
2019-05-21 00:00:00 11.5 9 Norte 11 Norte 0 1005 1.1 86
2019-05-20 23:00:00 12.8 5 Nordeste 13 Nordeste 0 1005 1.5 80
2019-05-20 22:00:00 14 5 Este 9 Este 0 1004.5 1.3 77
2019-05-20 21:00:00 16.7 0 Calma 13 Sudoeste 0 1003.9 0.8 67
2019-05-20 20:00:00 19 8 Sudoeste 18 Sudoeste 0 1003.5 0.3 54
2019-05-20 19:00:00 20 12 Sudoeste 21 Oeste 0 1003.2 0.1 50
2019-05-20 18:00:00 21 13 Oeste 26 Sudoeste 0 1003.1 -0.1 45
2019-05-20 17:00:00 20.6 19 Sudoeste 33 Oeste 0 1003.2 -0.1 41
2019-05-20 16:00:00 20.7 20 Oeste 30 Oeste 0 1003.1 0 44
2019-05-20 15:00:00 20.7 18 Sudoeste 26 Sudoeste 0 1003.2 0 44
2019-05-20 14:00:00 21.3 12 Sudoeste 24 Sudoeste 0 1003.3 0.4 42
2019-05-20 13:00:00 20.8 14 Oeste 28 Oeste 0 1003.1 0.3 46
2019-05-20 12:00:00 19.9 17 Sudoeste 30 Oeste 0 1003.2 1 52
2019-05-20 11:00:00 19.1 18 Oeste 30 Oeste 0 1002.9 1.3 60
2019-05-20 10:00:00 16.9 14 Oeste 24 Sudoeste 0 1002.8 1.8 75
2019-05-20 09:00:00 17 13 Sudoeste 21 Sudoeste 0 1002.2 1.5 78
2019-05-20 08:00:00 15.4 5 Oeste 11 Oeste 0 1001.6 0.8 82
2019-05-20 07:00:00 9.8 6 Oeste 11 Oeste 0 1001 -0.1 92
2019-05-20 06:00:00 10 7 Oeste 11 Sudoeste 0 1000.7 -0.7 90
2019-05-20 05:00:00 9.2 9 Sudoeste -- -- 0 1000.8 -0.9 87
2019-05-20 04:00:00 8.6 9 Oeste -- -- 0 1001.1 -0.9 84
2019-05-20 03:00:00 -- 8 Oeste 11 Oeste 0 1001.4 -0.4 --
2019-05-20 02:00:00 10.4 8 Noroeste 13 Oeste 0 1001.7 0.1 83
2019-05-20 01:00:00 10.7 9 Oeste 15 Noroeste 0 1002 0.8 83
2019-05-20 00:00:00 10.8 10 Oeste 15 Oeste 0 1001.8 1.2 82
2019-05-19 23:00:00 11.4 6 Noroeste 13 Noroeste 0 1001.6 1.8 80
2019-05-19 22:00:00 12.5 7 Noroeste 18 Norte 0 1001.2 1.9 74
2019-05-19 21:00:00 13.9 13 Norte 26 Norte 0 1000.6 1.4 70
2019-05-19 20:00:00 16.1 16 Noroeste 37 Noroeste 0 999.8 0.7 58
2019-05-19 19:00:00 17 17 Noroeste 37 Oeste 0 999.3 0.4 53
2019-05-19 18:00:00 17.2 22 Oeste 41 Oeste 0 999.2 0.2 56
2019-05-19 17:00:00 17.8 26 Oeste 45 Oeste 0 999.1 0.2 48
2019-05-19 16:00:00 19.7 26 Oeste 48 Oeste 0 998.9 -0.4 42
2019-05-19 15:00:00 19.8 24 Oeste 45 Oeste 0 999 -0.3 44
2019-05-19 14:00:00 19.4 27 Oeste 48 Oeste 0 998.9 -0.1 45
2019-05-19 13:00:00 18.1 28 Oeste 48 Oeste 0 999.3 0.8 52
2019-05-19 12:00:00 17.7 28 Oeste 46 Oeste 0 999.3 1 53
2019-05-19 11:00:00 17.9 28 Oeste 45 Oeste 0 999 0.7 56
2019-05-19 10:00:00 17.7 26 Oeste 35 Oeste 0 998.5 0.5 60
2019-05-19 09:00:00 16.8 24 Oeste 35 Oeste 0 998.3 0.2 64
2019-05-19 08:00:00 15.3 13 Oeste 21 Oeste 0 998.3 0.1 79
2019-05-19 07:00:00 9.3 9 Oeste -- -- 0 998 -0.7 92
2019-05-19 06:00:00 8.7 9 Oeste 9 Oeste 0 998.1 -1 92
2019-05-19 05:00:00 8.3 -- -- -- -- 0 998.2 -1.3 91
2019-05-19 04:00:00 8.1 9 Oeste 11 Oeste 0 998.7 -1 90
2019-05-19 03:00:00 9.3 8 Oeste 11 Noroeste 0 999.1 -0.6 90
2019-05-19 02:00:00 10.8 6 Oeste 11 Noroeste 0 999.5 -0.6 89
2019-05-19 01:00:00 13 5 Oeste 9 Sudoeste 0 999.7 -0.2 87
2019-05-19 00:00:00 -- 8 Sudoeste 9 Sudoeste 0 999.7 0 --
2019-05-18 23:00:00 13.5 8 Sudoeste 13 Sur 0 1000.1 1 87
2019-05-18 22:00:00 14 10 Sur 18 Sur 0 999.9 1.1 83
2019-05-18 21:00:00 15 11 Sur 26 Sur 0 999.7 0.9 75
2019-05-18 20:00:00 17.1 19 Sur 32 Sur 0 999.1 0.2 66
2019-05-18 19:00:00 17.5 19 Sur 35 Sudeste 0 998.8 -0.4 65
2019-05-18 18:00:00 17.7 18 Sur 28 Sur 0 998.8 -0.4 63
2019-05-18 17:00:00 18 17 Sur 30 Oeste 0 998.9 -0.4 62
2019-05-18 16:00:00 18.5 16 Sur 26 Sudoeste 0 999.2 0.1 59
2019-05-18 15:00:00 17.9 12 Sur 28 Sudoeste 0 999.2 0 60
2019-05-18 14:00:00 18.5 17 Sur 28 Sudoeste 0 999.3 0.5 60
2019-05-18 13:00:00 16.8 12 Nordeste 21 Norte 0 999.1 0.4 63
2019-05-18 12:00:00 16.2 6 Norte 21 Norte 0 999.2 0.8 67
2019-05-18 11:00:00 17.9 12 Norte 21 Nordeste 0 998.8 0.6 62
2019-05-18 10:00:00 16.4 8 Norte 18 Nordeste 0 998.7 1.5 63
2019-05-18 09:00:00 15.1 10 Norte 17 Norte 0 998.4 1.5 69
2019-05-18 08:00:00 14.2 3 Noroeste 8 Norte 0 998.2 1.4 77
2019-05-18 07:00:00 12.6 0 Calma 17 Nordeste 0 997.2 0.2 88
2019-05-18 06:00:00 12.3 6 Noroeste 11 Noroeste 0 996.9 -0.4 93
2019-05-18 05:00:00 12.1 6 Noroeste 9 Noroeste 0 996.8 -0.5 92
2019-05-18 04:00:00 12.6 8 Noroeste 21 Norte 0 997 -0.2 93
2019-05-18 03:00:00 12.1 8 Noroeste 15 Norte 0 997.3 0.5 91
2019-05-18 02:00:00 12.5 10 Norte 21 Noroeste 0 997.3 1.1 89
2019-05-18 01:00:00 13.5 13 Noroeste 30 Noroeste 0 997.2 1.5 86
2019-05-18 00:00:00 13.9 15 Noroeste 35 Noroeste 0 996.8 1.9 86
2019-05-17 23:00:00 14.6 15 Noroeste 28 Noroeste 0 996.2 3 82
2019-05-17 22:00:00 14.6 17 Noroeste 35 Noroeste 0 995.7 4.3 81
2019-05-17 21:00:00 14.8 17 Noroeste 41 Noroeste 0 994.9 4.3 79
2019-05-17 20:00:00 16.1 22 Noroeste 50 Noroeste 0 993.2 2.9 73
2019-05-17 19:00:00 16.7 30 Noroeste 61 Noroeste 0 991.4 0.6 76
2019-05-17 18:00:00 17.6 37 Oeste 67 Oeste 0 990.6 0.4 71
2019-05-17 17:00:00 17.4 36 Oeste 71 Oeste 0 990.3 1.2 65
2019-05-17 16:00:00 17.9 40 Oeste 68 Oeste 0 990.8 1.1 62
2019-05-17 15:00:00 17.8 49 Oeste 82 Oeste 0 990.2 -0.3 66
2019-05-17 14:00:00 20.7 24 Sur 35 Sudoeste 0 989.1 -1.6 68
2019-05-17 13:00:00 20.5 21 Sur 30 Sudoeste 0 989.7 -1.4 73
2019-05-17 12:00:00 17.9 17 Sur 37 Sudeste 0 990.5 -1.5 82
2019-05-17 11:00:00 17.2 22 Sur 35 Sur 0 990.7 -1.6 81
2019-05-17 10:00:00 16.1 23 Sudeste 37 Sudeste 0 991.1 -2.1 83
2019-05-17 09:00:00 15.8 25 Sudeste 45 Sudeste 0 992 -1.8 83
2019-05-17 08:00:00 15.1 26 Sudeste 37 Sudeste 0 992.3 -2.2 84
2019-05-17 07:00:00 14.5 19 Sudeste 30 Sudeste 0 993.2 -1.3 85
2019-05-17 06:00:00 14.3 19 Sudeste 30 Sudeste 0 993.8 -2.3 84
2019-05-17 05:00:00 13.9 18 Sudeste 32 Sudeste 0 994.5 -2.4 82
2019-05-17 04:00:00 13.8 18 Sudeste 30 Sudeste 0 994.5 -3.6 79
2019-05-17 03:00:00 13.8 17 Sudeste 30 Sudeste 0 996.1 -2.7 75
2019-05-17 02:00:00 14.2 20 Sudeste 28 Sudeste 0 996.9 -2.5 74
2019-05-17 01:00:00 14 17 Sudeste 30 Sudeste 0 998.1 -1.6 74
2019-05-17 00:00:00 14.1 20 Sudeste 32 Sudeste 0 998.8 -1.2 77
2019-05-16 23:00:00 14.2 21 Sudeste 30 Sudeste 0 999.4 -0.9 75
2019-05-16 22:00:00 14.3 17 Sudeste 30 Sudeste 0 999.7 -0.8 75
2019-05-16 21:00:00 14.8 19 Sudeste 30 Sudeste 0 1000 -1.1 72
2019-05-16 20:00:00 16.2 21 Sudeste 32 Sur 0 1000.3 -1.1 66
2019-05-16 19:00:00 16.1 21 Sur 32 Sudeste 0 1000.5 -1.6 65
2019-05-16 18:00:00 18.3 21 Sur 32 Sur 0 1001.1 -1.9 57
2019-05-16 17:00:00 18.8 23 Sur 33 Sudoeste 0 1001.4 -1.9 54
2019-05-16 16:00:00 19 20 Sur 32 Sur 0 1002.1 -1.8 55
2019-05-16 15:00:00 19 21 Sur 32 Sur 0 1003 -1.2 52
2019-05-16 14:00:00 18.6 19 Sur 35 Sur 0 1003.3 -0.9 55
2019-05-16 13:00:00 18.2 17 Sur 28 Sur 0 1003.9 -0.3 54
2019-05-16 12:00:00 18.2 15 Sur 28 Sur 0 1004.2 0 52
2019-05-16 11:00:00 18.1 14 Sur 22 Sudoeste 0 1004.2 0 52
2019-05-16 10:00:00 17.1 11 Sur 17 Sur 0 1004.2 0.2 50
2019-05-16 09:00:00 16.6 6 Sudeste 11 Sudeste 0 1004.2 0.4 59
2019-05-16 08:00:00 13.6 5 Nordeste 13 Este 0 1004.2 0.1 77
2019-05-16 07:00:00 7.3 -- -- -- -- 0 1004 -0.2 91
2019-05-16 06:00:00 5.8 5 Oeste 8 Oeste 0 1003.8 -0.6 90
2019-05-16 05:00:00 6.9 0 Calma -- -- 0 1004.1 -0.6 90
2019-05-16 04:00:00 7.3 0 Calma 5 Este 0 1004.2 -0.9 90
2019-05-16 03:00:00 7.6 4 Nordeste 8 Este 0 1004.4 -0.8 87
2019-05-16 02:00:00 8.4 0 Calma 8 Nordeste 0 1004.7 -0.4 87
2019-05-16 01:00:00 9.5 5 Nordeste 13 Este 0 1005.1 0.3 82
2019-05-16 00:00:00 11.2 10 Este 13 Nordeste 0 1005.2 1.1 80
2019-05-15 23:00:00 11.9 8 Este 13 Este 0 1005.1 1.5 82
2019-05-15 22:00:00 12.6 9 Este 21 Nordeste 0 1004.8 1.7 82
2019-05-15 21:00:00 13.4 14 Nordeste 28 Este 0 1004.1 1.3 79
2019-05-15 20:00:00 15 20 Nordeste 33 Este 0 1003.6 1.1 73
2019-05-15 19:00:00 16.1 25 Nordeste 39 Nordeste 0 1003.1 0.6 67
2019-05-15 18:00:00 17.4 31 Nordeste 41 Nordeste 0 1002.8 0.3 58
2019-05-15 17:00:00 18.1 29 Nordeste 41 Nordeste 0 1002.5 0 54
2019-05-15 16:00:00 18.8 29 Nordeste 42 Nordeste 0 1002.5 0.1 51
2019-05-15 15:00:00 19.6 27 Norte 41 Norte 0 1002.5 0.3 43
2019-05-15 14:00:00 19.2 30 Nordeste 42 Nordeste 0 1002.5 0.4 55
2019-05-15 13:00:00 20.2 24 Norte 41 Norte 0 1002.4 0.1 41
2019-05-15 12:00:00 20.8 27 Norte 41 Norte 0 1002.2 -0.1 32
2019-05-15 11:00:00 20.1 20 Norte 39 Noroeste 0 1002.1 0 46
2019-05-15 10:00:00 19.4 18 Noroeste 30 Noroeste 0 1002.3 0.3 58
2019-05-15 09:00:00 18.5 10 Noroeste 18 Norte 0 1002.3 0.1 69
2019-05-15 08:00:00 16.1 8 Oeste 13 Oeste 0 1002.1 -0.5 80
2019-05-15 07:00:00 13.7 10 Oeste 17 Oeste 0 1002 -1.2 89
2019-05-15 06:00:00 13.5 13 Oeste 18 Oeste 0 1002.2 -1.6 92
2019-05-15 05:00:00 13.9 14 Oeste 18 Sudoeste 0 1002.6 -2.2 93
2019-05-15 04:00:00 13.7 13 Oeste 17 Oeste 0 1003.2 -2.5 91
2019-05-15 03:00:00 13.9 14 Sudoeste 18 Sudoeste 0 1003.8 -2.1 92
2019-05-15 02:00:00 13.7 12 Sudoeste 15 Sudoeste 0 1004.8 -0.9 91
2019-05-15 01:00:00 13.7 11 Sudoeste 15 Sudoeste 0 1005.7 -0.6 88
2019-05-15 00:00:00 13.9 10 Sudoeste 13 Sudoeste 0 1005.9 -0.4 86
2019-05-14 23:00:00 13.6 10 Sudoeste 15 Sudoeste 0 1005.7 -0.6 84
2019-05-14 22:00:00 13.8 10 Sur 11 Sur 0 1006.3 0.2 86
2019-05-14 21:00:00 15.4 7 Sur 17 Sur 0 1006.3 0.4 77
2019-05-14 20:00:00 18.2 13 Sur 21 Sur 0 1006.3 -0.1 65
2019-05-14 19:00:00 20 17 Sur 28 Sudoeste 0 1006.1 -0.9 46
2019-05-14 18:00:00 22.6 14 Noroeste 26 Oeste 0 1005.9 -1.6 26
2019-05-14 17:00:00 22.4 15 Norte 35 Norte 0 1006.4 -1.3 30
2019-05-14 16:00:00 22.5 24 Norte 41 Nordeste 0 1007 -1.2 27
2019-05-14 15:00:00 21.7 25 Norte 42 Norte 0 1007.5 -0.7 34
2019-05-14 14:00:00 21.5 26 Norte 42 Norte 0 1007.7 -0.6 36
2019-05-14 13:00:00 20.8 25 Norte 37 Norte 0 1008.2 0.2 43
2019-05-14 12:00:00 20.6 29 Norte 42 Norte 0 1008.2 0.4 43
2019-05-14 11:00:00 19.7 25 Norte 42 Norte 0 1008.3 0.4 47
2019-05-14 10:00:00 19 26 Norte 48 Norte 0 1008 0.2 53
2019-05-14 09:00:00 17.8 34 Norte 46 Norte 0 1007.8 -0.1 54
2019-05-14 08:00:00 16.3 27 Norte 39 Norte 0 1007.9 -0.1 65
2019-05-14 07:00:00 14.9 24 Norte 35 Norte 0 1007.8 -0.7 73
2019-05-14 06:00:00 14.5 26 Norte 41 Norte 0 1007.9 -0.7 73
2019-05-14 05:00:00 14.9 27 Norte 46 Norte 0 1008 -0.9 73
2019-05-14 04:00:00 15 32 Norte 46 Norte 0 1008.5 -0.9 72
2019-05-14 03:00:00 14 15 Norte 26 Norte 0 1008.6 -0.7 65
2019-05-14 02:00:00 13.9 12 Norte 35 Norte 0 1008.9 -0.6 67
2019-05-14 01:00:00 14.4 23 Norte 33 Norte 0 1009.4 -0.3 62
2019-05-14 00:00:00 14.1 17 Norte 24 Norte 0 1009.3 -0.1 64
2019-05-13 23:00:00 13 13 Norte 21 Norte 0 1009.5 0.6 69
2019-05-13 22:00:00 14.1 13 Norte 24 Norte 0 1009.7 0.6 66
2019-05-13 21:00:00 14.9 15 Norte 48 Norte 0 1009.4 0.1 62
2019-05-13 20:00:00 16.7 35 Norte 50 Norte 0 1008.9 -0.4 54
2019-05-13 19:00:00 17.5 35 Norte 48 Norte 0 1009.1 0.2 48
2019-05-13 18:00:00 18.2 31 Norte 48 Norte 0 1009.3 0.3 48
2019-05-13 17:00:00 18.4 36 Norte 55 Norte 0 1009.3 0.3 49
2019-05-13 16:00:00 18.1 43 Norte 59 Norte 0 1008.9 -0.4 51
2019-05-13 15:00:00 18.1 44 Norte 65 Norte 0 1009 -0.5 48
2019-05-13 14:00:00 18.2 39 Norte 65 Norte 0 1009 -0.5 47
2019-05-13 13:00:00 17.6 46 Norte 65 Norte 0 1009.3 0 48
2019-05-13 12:00:00 17.5 47 Norte 63 Norte 0 1009.5 -0.1 44
2019-05-13 11:00:00 16.9 41 Norte 65 Norte 0 1009.5 0.5 46
2019-05-13 10:00:00 16.5 39 Norte 65 Norte 0 1009.3 0.6 40
2019-05-13 09:00:00 16.2 39 Norte 65 Norte 0 1009.6 1.4 38
2019-05-13 08:00:00 15.5 48 Norte 71 Norte 0 1009 1.1 42
2019-05-13 07:00:00 14.6 50 Norte 78 Norte 0 1008.7 0.1 45
2019-05-13 06:00:00 14.5 34 Norte 71 Norte 0 1008.2 -0.4 44
2019-05-13 05:00:00 14.9 47 Norte 72 Norte 0 1007.9 -1.2 39
2019-05-13 04:00:00 15.3 41 Norte 74 Norte 0 1008.6 -1.3 37
2019-05-13 03:00:00 15.5 52 Norte 82 Norte 0 1008.6 -1.7 40
2019-05-13 02:00:00 15.7 35 Norte 61 Norte 0 1009.1 -1.5 50
2019-05-13 01:00:00 16 45 Norte 63 Norte 0 1009.9 -0.7 54
2019-05-13 00:00:00 16.3 34 Norte 65 Norte 0 1010.3 0 54
2019-05-12 23:00:00 16.9 38 Norte 63 Norte 0 1010.6 0.2 50
2019-05-12 22:00:00 16.9 35 Norte 59 Norte 0 1010.6 -- 49
2019-05-12 21:00:00 16.7 39 Norte 61 Norte 0 1010.3 -0.6 49
2019-05-12 20:00:00 18.1 25 Norte 54 Norte 0 1010.4 -0.5 45
2019-05-12 19:00:00 18.9 28 Norte 50 Noroeste 0 -- -- 43
2019-05-12 18:00:00 19.8 29 Norte 55 Norte 0 1010.9 -0.7 38
2019-05-12 17:00:00 20 28 Norte 54 Norte 0 1010.9 -0.3 42
2019-05-12 16:00:00 19.2 29 Norte 46 Norte 0 1011.5 -0.2 46
2019-05-12 15:00:00 20.2 30 Norte 52 Norte 0 1011.6 -0.5 46
2019-05-12 14:00:00 20.1 27 Noroeste 54 Noroeste 0 1011.2 -1.1 44
2019-05-12 13:00:00 20.4 36 Norte 65 Norte 0 1011.7 -0.5 38
2019-05-12 12:00:00 20 44 Norte 72 Norte 0 1012.1 -0.4 37
2019-05-12 11:00:00 19.3 42 Norte 85 Norte 0 1012.3 -0.3 39
2019-05-12 10:00:00 18.4 43 Norte 76 Norte 0 1012.2 -0.4 45
2019-05-12 09:00:00 17.6 36 Norte 65 Norte 0 1012.5 0.1 52
2019-05-12 08:00:00 16.4 32 Norte 52 Norte 0 1012.6 0.4 58
2019-05-12 07:00:00 15.5 28 Norte 50 Norte 0 1012.6 0.4 62
2019-05-12 06:00:00 15.4 31 Norte 50 Norte 0 1012.4 0.3 62
2019-05-12 05:00:00 16 30 Norte 59 Norte 0 1012.2 0 60
2019-05-12 04:00:00 15.6 40 Norte 52 Norte 0 1012.2 0.1 66
2019-05-12 03:00:00 15.8 32 Norte 50 Norte 0 1012.1 -0.1 66
2019-05-12 02:00:00 16.3 31 Norte 52 Norte 0 1012.2 0.2 63
2019-05-12 01:00:00 16.6 31 Norte 48 Norte 0 1012.1 0.5 60
2019-05-12 00:00:00 16.6 28 Norte 42 Norte 0 1012.2 1.4 58
2019-05-11 23:00:00 16.6 28 Norte 45 Nordeste 0 1012 2.1 60
2019-05-11 22:00:00 16.7 28 Nordeste 46 Nordeste 0 1011.6 2.4 64
2019-05-11 21:00:00 16.6 33 Nordeste 52 Nordeste 0 1010.8 2 64
2019-05-11 20:00:00 17.5 39 Nordeste 58 Nordeste 0 1009.9 0.9 60
2019-05-11 19:00:00 19 39 Nordeste 54 Norte 0 1009.2 0.3 57
2019-05-11 18:00:00 19.5 37 Nordeste 54 Nordeste 0 1008.8 0.2 61
2019-05-11 17:00:00 20.3 40 Norte 52 Nordeste 0 1009 0.8 63
2019-05-11 16:00:00 21 41 Norte 52 Norte 0 1008.9 0.7 61
2019-05-11 15:00:00 21.8 33 Norte 46 Norte 0 1008.6 1 58
2019-05-11 14:00:00 22.5 28 Norte 41 Norte 0 1008.2 0.5 51
2019-05-11 13:00:00 21.7 28 Norte 35 Norte 0 1008.2 0.7 65
2019-05-11 12:00:00 24 8 Este 18 Este 0 1007.6 0.7 54
2019-05-11 11:00:00 21.4 6 Este 17 Nordeste 0 1007.7 1.4 69
2019-05-11 10:00:00 19.3 8 Este 21 Este 0 1007.5 1.4 82
2019-05-11 09:00:00 18.4 11 Nordeste 30 Este 0 1006.9 1.3 92
2019-05-11 08:00:00 16.8 20 Nordeste 37 Nordeste 0 1006.3 0.7 97
2019-05-11 07:00:00 16.4 15 Nordeste 18 Nordeste 0 1006.1 0.4 96
2019-05-11 06:00:00 16.3 5 Sur 9 Sur 0 1005.6 0.3 96
2019-05-11 05:00:00 15.6 2 Sudeste -- -- 0 1005.6 0.1 95
2019-05-11 04:00:00 14.9 2 Este 8 Este 0 1005.7 0.2 95
2019-05-11 03:00:00 16.1 7 Este 11 Este 0 1005.3 -0.3 94
2019-05-11 02:00:00 16.2 6 Este 9 Este 0 1005.5 0 94
2019-05-11 01:00:00 16.6 8 Este 13 Norte 0 1005.5 0.8 94
2019-05-11 00:00:00 16.8 6 Sudeste 9 Sudeste 0 1005.6 1.5 92
2019-05-10 23:00:00 17.1 6 Sudeste 13 Sudeste 0 1005.5 1.8 92
2019-05-10 22:00:00 16.9 11 Sur 13 Sur 0 1004.7 1.1 85
2019-05-10 21:00:00 18.9 3 Sudoeste 9 Sur 0 1004.1 0.3 75
2019-05-10 20:00:00 22.1 5 Sudoeste 15 Sudoeste 0 1003.7 -0.1 63
2019-05-10 19:00:00 23.1 9 Sur 15 Sudoeste 0 1003.6 -0.1 63
2019-05-10 18:00:00 22.1 7 Sudoeste 17 Sudoeste 0 1003.8 0.3 66
2019-05-10 17:00:00 23.6 12 Sudoeste 26 Sudoeste 0 1003.8 0.5 61
2019-05-10 16:00:00 25 10 Este 30 Sudoeste 0 1003.7 0.4 59
2019-05-10 15:00:00 26 17 Sudoeste 26 Oeste 0 1003.5 0.1 52
2019-05-10 14:00:00 24.1 20 Oeste 28 Sudoeste 0 1003.3 0.1 58
2019-05-10 13:00:00 23.3 19 Oeste 26 Oeste 0 1003.3 0.3 64
2019-05-10 12:00:00 22.1 14 Oeste 24 Oeste 0 1003.4 1 72
2019-05-10 11:00:00 20.5 18 Oeste 30 Sudoeste 0 1003.2 1 81
2019-05-10 10:00:00 18.9 21 Sudoeste 30 Sudoeste 0 1003 1 88
2019-05-10 09:00:00 17.6 21 Sudoeste 28 Sudoeste 0 1002.4 0.6 94
2019-05-10 08:00:00 16.9 18 Sudoeste 30 Sudoeste 0 1002.2 0.4 96
2019-05-10 07:00:00 16.4 21 Sudoeste 33 Sudoeste 0 1002 -0.1 96
2019-05-10 06:00:00 16.2 19 Sudoeste 28 Sudoeste 0 1001.8 -0.5 96
2019-05-10 05:00:00 16.6 16 Sudoeste 30 Sudoeste 0 1001.8 -1.2 95
2019-05-10 04:00:00 15.6 12 Sudoeste 18 Sudoeste 0 1002.1 -1.2 92
2019-05-10 03:00:00 15 10 Sudoeste 17 Sudoeste 0 1002.3 -1 85
2019-05-10 02:00:00 14.9 13 Oeste 22 Oeste 0 1003 -0.5 85
2019-05-10 01:00:00 14.9 12 Sudoeste 22 Sudoeste 0 1003.3 -0.3 95
2019-05-10 00:00:00 15.5 13 Sur 18 Sur 0 1003.3 0 95
2019-05-09 23:00:00 15.8 12 Sur 18 Sur 0 1003.5 0.6 93
2019-05-09 22:00:00 15.4 10 Sudeste 18 Sur 0 1003.6 0.6 92
2019-05-09 21:00:00 15.6 10 Sur 24 Sur 0 1003.3 0.1 88
2019-05-09 20:00:00 17.5 13 Sur 21 Sur 0 1002.9 -0.2 77
2019-05-09 19:00:00 19.2 14 Sur 21 Sur 0 1003 -0.6 67
2019-05-09 18:00:00 20 12 Sur 24 Sur 0 1003.2 -0.5 64
2019-05-09 17:00:00 20.4 15 Sur 24 Sudeste 0 1003.1 -0.7 61
2019-05-09 16:00:00 21.8 10 Sur 24 Sur 0 1003.6 -0.1 56
2019-05-09 15:00:00 21.4 11 Sur 22 Sur 0 1003.7 0.2 60
2019-05-09 14:00:00 20.4 13 Sur 26 Sur 0 1003.8 1 66
2019-05-09 13:00:00 20 12 Sur 28 Sudoeste 0 1003.7 1.2 68
2019-05-09 12:00:00 19.2 15 Sur 30 Sur 0 1003.5 1.7 73
2019-05-09 11:00:00 19.9 8 Norte 22 Norte 0 1002.8 1.7 66
2019-05-09 10:00:00 17.8 15 Norte 28 Norte 0 1002.5 3 76
2019-05-09 09:00:00 16.2 18 Norte 28 Norte 0 1001.8 2.8 85
2019-05-09 08:00:00 15 15 Nordeste 28 Norte 0 1001.1 2.3 92
2019-05-09 07:00:00 14.8 17 Norte 24 Norte 0 999.5 1.1 91
2019-05-09 06:00:00 16.9 15 Norte 28 Oeste 0 999 1 81
2019-05-09 05:00:00 18.7 16 Noroeste 42 Oeste 0 998.8 0.7 69
2019-05-09 04:00:00 17.9 17 Noroeste 30 Noroeste 0 998.4 0 77
2019-05-09 03:00:00 17.5 14 Oeste 30 Oeste 0 998 -0.6 81
2019-05-09 02:00:00 17.5 17 Oeste 30 Oeste 0 998.1 -1 85
2019-05-09 01:00:00 17.1 16 Oeste 32 Sudoeste 0 998.4 -0.3 90
2019-05-09 00:00:00 16.8 14 Sudoeste 24 Sudoeste 0 998.6 -0.1 93
2019-05-08 23:00:00 16.8 14 Sudoeste 35 Sudoeste 0 999.1 0.3 92
2019-05-08 22:00:00 16.8 27 Sudoeste 37 Sudoeste 0 998.7 -0.2 92
2019-05-08 21:00:00 17.1 19 Sudoeste 33 Sudoeste 0 998.7 -0.5 89
2019-05-08 20:00:00 17.6 15 Sudoeste 35 Sudoeste 0 998.8 -0.6 88
2019-05-08 19:00:00 18.2 22 Sudoeste 37 Sudoeste 0 998.9 -1 86
2019-05-08 18:00:00 19.6 23 Oeste 48 Sudoeste 0 999.2 -1.4 80
2019-05-08 17:00:00 19.5 30 Sudoeste 41 Sudoeste 0 999.4 -1.7 78
2019-05-08 16:00:00 20.2 25 Sudoeste 39 Sudoeste 0 999.9 -1.9 76
2019-05-08 15:00:00 19 26 Sudoeste 41 Sudoeste 0 1000.6 -1.9 79
2019-05-08 14:00:00 19.5 29 Sudoeste 39 Sudoeste 0 1001.1 -1.5 78
2019-05-08 13:00:00 19.3 27 Sudoeste 39 Sudoeste 0 1001.8 -1 79
2019-05-08 12:00:00 18.7 29 Sudoeste 39 Sudoeste 0 1002.5 -0.3 81
2019-05-08 11:00:00 17.8 26 Sudoeste 37 Sudoeste 0 1002.6 -0.1 84
2019-05-08 10:00:00 18 27 Sudoeste 39 Sudoeste 0 1002.8 0.1 85
2019-05-08 09:00:00 16.5 24 Sudoeste 33 Sudoeste 0 1002.8 -0.2 92
2019-05-08 08:00:00 15.7 20 Sur 30 Sur 0 1002.7 -0.8 95
2019-05-08 07:00:00 15.1 19 Sur 28 Sur 0 1002.7 -1.4 96
2019-05-08 06:00:00 14.7 19 Sur 32 Sur 0 1003 -2 95
2019-05-08 05:00:00 14.6 21 Sur 30 Sur 0 1003.5 -2.1 94
2019-05-08 04:00:00 14.6 21 Sur 30 Sur 0 1004.1 -2.5 93
2019-05-08 03:00:00 14.7 21 Sur 30 Sur 0 1005 -1.9 91
2019-05-08 02:00:00 14.6 21 Sur 30 Sur 0 1005.6 -1.7 90
2019-05-08 01:00:00 14.6 21 Sur 30 Sur 0 1006.6 -0.9 88
2019-05-08 00:00:00 14.4 19 Sur 30 Sur 0 1006.9 -0.4 87
2019-05-07 23:00:00 14.4 19 Sur 26 Sur 0 1007.3 0 86
2019-05-07 22:00:00 14.5 19 Sur 28 Sur 0 1007.5 -0.1 83
2019-05-07 21:00:00 14.8 19 Sur 30 Sur 0 1007.3 -0.7 80
2019-05-07 20:00:00 15.7 21 Sur 35 Sur 0 1007.3 -1 74
2019-05-07 19:00:00 17.3 24 Sur 32 Sur 0 1007.6 -1.2 66
2019-05-07 18:00:00 18.1 22 Sur 33 Sur 0 1008 -1.2 62
2019-05-07 17:00:00 18.9 24 Sur 35 Sur 0 1008.3 -1.5 57
2019-05-07 16:00:00 18.4 25 Sur 35 Sur 0 1008.8 -1.6 58
2019-05-07 15:00:00 18.5 25 Sur 37 Sur 0 1009.2 -1.4 60
2019-05-07 14:00:00 18.7 23 Sur 35 Sur 0 1009.8 -0.4 61
2019-05-07 13:00:00 18.5 22 Sur 32 Sur 0 1010.4 0.4 64
2019-05-07 12:00:00 18.2 21 Sur 30 Sur 0 1010.6 0.8 66
2019-05-07 11:00:00 17.7 20 Sur 32 Sur 0 1010.2 0.5 67
2019-05-07 10:00:00 17.2 18 Sur 28 Sur 0 1010 0.7 70
2019-05-07 09:00:00 16.1 16 Sur 22 Sur 0 1009.8 0.6 75
2019-05-07 08:00:00 14.9 13 Sur 18 Sur 0 1009.7 0.4 82
2019-05-07 07:00:00 12 10 Sudoeste 13 Sur 0 1009.3 -0.6 91
2019-05-07 06:00:00 11.8 9 Sudoeste 15 Sudoeste 0 1009.2 -0.7 87
2019-05-07 05:00:00 12.7 11 Sudoeste 17 Sudoeste 0 1009.3 -0.9 85
2019-05-07 04:00:00 12.7 10 Sudoeste 15 Sudoeste 0 1009.9 -0.5 88
2019-05-07 03:00:00 12.3 10 Sudoeste 17 Sudoeste 0 1009.9 -0.6 87
2019-05-07 02:00:00 12.6 11 Sudoeste 18 Sudoeste 0 1010.2 -0.3 87
2019-05-07 01:00:00 11.7 11 Sur 17 Sudoeste 0 1010.4 0.2 85
2019-05-07 00:00:00 11.3 11 Sudoeste 17 Sur 0 1010.5 0.6 81
2019-05-06 23:00:00 10.7 12 Sur 22 Sur 0 1010.5 1.1 79
2019-05-06 22:00:00 11.3 9 Sur 13 Sur 0 1010.2 0.9 74
2019-05-06 21:00:00 11.9 8 Sur 15 Sur 0 1009.9 0.5 69
2019-05-06 20:00:00 15.3 11 Sur 17 Sur 0 1009.4 -0.1 57
2019-05-06 19:00:00 16.6 12 Sur 21 Sur 0 1009.3 -0.3 50
2019-05-06 18:00:00 17.3 13 Sudoeste 22 Oeste 0 1009.4 -0.4 47
2019-05-06 17:00:00 17.3 14 Sudoeste 32 Sur 0 1009.5 -0.3 46
2019-05-06 16:00:00 17.7 16 Sur 28 Sudoeste 0 1009.6 -0.5 44
2019-05-06 15:00:00 18.6 9 Sudoeste 24 Nordeste 0 1009.8 -0.4 41
2019-05-06 14:00:00 16.6 13 Norte 33 Norte 0 1009.8 0 46
2019-05-06 13:00:00 17 22 Norte 46 Este 0 1010.1 0.6 44
2019-05-06 12:00:00 16.5 26 Norte 45 Nordeste 0 1010.2 1 43
2019-05-06 11:00:00 15.9 28 Norte 45 Norte 0 1009.8 1.1 46
2019-05-06 10:00:00 14.8 32 Norte 48 Norte 0 1009.5 1.4 47
2019-05-06 09:00:00 14 26 Norte 42 Norte 0 1009.2 1.5 51
2019-05-06 08:00:00 13.4 20 Norte 30 Norte 0 1008.7 1 53
2019-05-06 07:00:00 11.8 15 Norte 28 Norte 0 1008.1 0.4 55
2019-05-06 06:00:00 12.1 19 Norte 32 Norte 0 1007.7 0 55
2019-05-06 05:00:00 12 22 Norte 33 Norte 0 1007.7 -0.4 52
2019-05-06 04:00:00 11.7 20 Norte 35 Norte 0 1007.7 -0.8 53
2019-05-06 03:00:00 11.6 22 Norte 35 Norte 0 1007.7 -0.5 55
2019-05-06 02:00:00 11.9 23 Norte 37 Norte 0 1008.1 0.1 58
2019-05-06 01:00:00 11.2 13 Norte 28 Norte 0 1008.5 1.2 70
2019-05-06 00:00:00 11.3 8 Noroeste 21 Norte 0.2 1008.2 1.8 73
2019-05-05 23:00:00 11.4 9 Norte 11 Norte 0 1008 2.1 70
2019-05-05 22:00:00 10 4 Norte 15 Norte 0 1007.3 1.9 70
2019-05-05 21:00:00 11.2 10 Norte 22 Norte 0 1006.4 1.1 64
2019-05-05 20:00:00 14.3 18 Norte 39 Norte 0 1005.9 0.5 48
2019-05-05 19:00:00 15.8 25 Norte 39 Norte 0 1005.4 0 44
2019-05-05 18:00:00 16.1 22 Norte 42 Noroeste 0 1005.3 0 42
2019-05-05 17:00:00 16.6 25 Norte 41 Norte 0 1005.4 0.8 39
2019-05-05 16:00:00 17.1 25 Noroeste 50 Oeste 0 1005.4 0.6 37
2019-05-05 15:00:00 16.8 26 Noroeste 55 Norte 0 1005.3 0.7 35
2019-05-05 14:00:00 16.3 45 Norte 59 Norte 0 1004.6 0.4 36
2019-05-05 13:00:00 15.6 44 Norte 68 Norte 0 1004.8 1 36
2019-05-05 12:00:00 15.3 52 Norte 68 Norte 0 1004.6 1.8 35
2019-05-05 11:00:00 14.3 42 Norte 72 Norte 0 1004.2 1.3 37
2019-05-05 10:00:00 13.6 39 Norte 74 Norte 0 1003.8 2.2 40
2019-05-05 09:00:00 12.7 48 Norte 63 Norte 0 1002.8 1.5 50
2019-05-05 08:00:00 11.8 35 Norte 58 Norte 0 1002.9 1.2 55
2019-05-05 07:00:00 11.1 37 Norte 59 Norte 0 1001.6 0.9 63
2019-05-05 06:00:00 10.5 42 Norte 58 Norte 0.1 1001.3 0.6 73
2019-05-05 05:00:00 12.9 45 Norte 58 Norte 0 1001.7 0.8 85
2019-05-05 04:00:00 14.2 18 Oeste 35 Oeste 0 1000.7 -0.5 84
2019-05-05 03:00:00 14.3 22 Oeste 39 Oeste 0 1000.7 -1 80
2019-05-05 02:00:00 14.2 23 Oeste 41 Sudoeste 0 1000.9 -1 80
2019-05-05 01:00:00 13.9 23 Sudoeste 33 Oeste 0 1001.2 -0.7 78
2019-05-05 00:00:00 11.9 14 Oeste 21 Sudoeste 0 1001.7 -0.1 85
2019-05-04 23:00:00 11.1 6 Norte 17 Norte 0 1001.9 0.3 86
2019-05-04 22:00:00 12.3 7 Nordeste 18 Este 0 1001.9 0.7 83
2019-05-04 21:00:00 14.1 9 Sudoeste 28 Oeste 0 1001.8 0.9 74
2019-05-04 20:00:00 16.2 16 Oeste 41 Oeste 0 1001.6 0.6 66
2019-05-04 19:00:00 17.4 26 Oeste 42 Oeste 0 1001.2 0.2 62
2019-05-04 18:00:00 18.5 24 Noroeste 42 Noroeste 0 1000.9 -0.4 43
2019-05-04 17:00:00 18.8 19 Noroeste 41 Noroeste 0 1001 -0.2 47
2019-05-04 16:00:00 18.4 17 Noroeste 45 Norte 0 1001 -0.2 48
2019-05-04 15:00:00 18.4 29 Norte 52 Norte 0 1001.3 0 49
2019-05-04 14:00:00 18.4 27 Noroeste 52 Norte 0 1001.2 0.2 47
2019-05-04 13:00:00 17.7 33 Norte 58 Norte 0 1001.2 0.4 51
2019-05-04 12:00:00 17.3 34 Norte 58 Norte 0 1001.3 0.8 55
2019-05-04 11:00:00 16.7 32 Norte 52 Norte 0 1001 0.8 61
2019-05-04 10:00:00 15.7 26 Norte 46 Norte 0 1000.8 1.1 70
2019-05-04 09:00:00 14.4 21 Norte 30 Norte 0 1000.5 1 78
2019-05-04 08:00:00 12.4 15 Norte 28 Norte 0 1000.2 0.8 85
2019-05-04 07:00:00 11.9 16 Norte 26 Norte 0 999.7 0 88
2019-05-04 06:00:00 11.6 10 Norte 28 Norte 0 999.5 -0.6 93
2019-05-04 05:00:00 10.7 18 Norte 26 Norte 0 999.4 -1.3 94
2019-05-04 04:00:00 10.8 15 Norte 24 Nordeste 0 999.7 -1.4 92
2019-05-04 03:00:00 11.4 19 Norte 28 Norte 0 1000.1 -1.4 94
2019-05-04 02:00:00 12.1 17 Norte 22 Norte 0.5 1000.7 -0.8 96
2019-05-04 01:00:00 12.1 14 Norte 26 Norte 0.2 1001.1 -0.1 95
2019-05-04 00:00:00 11.8 16 Norte 22 Norte 0.5 1001.5 1 94
2019-05-03 23:00:00 11.8 18 Norte 28 Norte 2.6 1001.5 1.8 95
2019-05-03 22:00:00 13.3 19 Norte 32 Norte 0.2 1001.2 1.8 91
2019-05-03 21:00:00 14.1 23 Nordeste 33 Nordeste 0 1000.5 0.7 81
2019-05-03 20:00:00 14.1 26 Nordeste 41 Nordeste 0 999.7 -0.1 83
2019-05-03 19:00:00 14.5 28 Nordeste 41 Nordeste 0 999.4 -0.8 81
2019-05-03 18:00:00 15.6 30 Nordeste 42 Nordeste 0 999.8 -0.6 77
2019-05-03 17:00:00 18.1 28 Nordeste 39 Nordeste 0 999.8 -0.9 63
2019-05-03 16:00:00 19 22 Nordeste 33 Nordeste 0 1000.2 -1 63
2019-05-03 15:00:00 19.1 20 Nordeste 33 Nordeste 0 1000.4 -1.2 59
2019-05-03 14:00:00 19.2 21 Nordeste 32 Este 0 1000.7 -1 58
2019-05-03 13:00:00 19.2 19 Este 32 Norte 0 1001.2 -0.4 59
2019-05-03 12:00:00 18.8 19 Nordeste 33 Este 0 1001.6 -0.4 62
2019-05-03 11:00:00 17.5 23 Nordeste 33 Nordeste 0 1001.7 0 69
2019-05-03 10:00:00 16.6 22 Nordeste 30 Nordeste 0 1001.6 -0.5 76
2019-05-03 09:00:00 14.7 17 Nordeste 22 Nordeste 0 1002 -0.1 95
2019-05-03 08:00:00 13.6 14 Norte 18 Nordeste 0 1001.7 -1 97
2019-05-03 07:00:00 12.6 9 Nordeste 17 Norte 0 1002.1 -1.2 97
2019-05-03 06:00:00 12.2 12 Nordeste 17 Norte 0 1002.1 -1.5 97
2019-05-03 05:00:00 10.6 10 Nordeste 11 Norte 0 1002.7 -1.7 95
2019-05-03 04:00:00 11.7 2 Este 15 Nordeste 0 1003.3 -1.5 94
2019-05-03 03:00:00 12.6 11 Nordeste 18 Nordeste 0 1003.6 -1.2 95
2019-05-03 02:00:00 13.2 14 Nordeste 18 Nordeste 0 1004.4 -0.6 94
2019-05-03 01:00:00 13.3 12 Este 17 Nordeste 0 1004.8 -0.3 94
2019-05-03 00:00:00 13.8 15 Nordeste 22 Nordeste 0 1004.8 0.2 93
2019-05-02 23:00:00 14.1 17 Nordeste 24 Nordeste 0 1005 0.9 91
2019-05-02 22:00:00 14.5 14 Nordeste 21 Nordeste 0 1005.1 0.7 88
2019-05-02 21:00:00 15 15 Nordeste 26 Nordeste 0 1004.6 -0.2 85
2019-05-02 20:00:00 16.5 20 Nordeste 32 Nordeste 0 1004.1 -1 77
2019-05-02 19:00:00 17.1 20 Nordeste 28 Nordeste 0 1004.4 -1.3 70
2019-05-02 18:00:00 17.6 20 Nordeste 28 Este 0 1004.8 -1.5 60
2019-05-02 17:00:00 18.8 19 Nordeste 26 Norte 0 1005.1 -1.2 57
2019-05-02 16:00:00 17.5 17 Nordeste 28 Este 0 1005.7 -0.9 66
2019-05-02 15:00:00 17.7 14 Nordeste 24 Este 0 1006.3 -0.7 68
2019-05-02 14:00:00 17.6 18 Nordeste 28 Nordeste 0 1006.3 -0.5 67
2019-05-02 13:00:00 18.5 19 Este 32 Nordeste 0 1006.6 0.4 66
2019-05-02 12:00:00 18.3 17 Nordeste 24 Nordeste 0 1007 1.3 65
2019-05-02 11:00:00 19.6 9 Nordeste 21 Nordeste 0 1006.8 1.2 63
2019-05-02 10:00:00 17.4 9 Nordeste 13 Nordeste 0 1006.2 1.1 76
2019-05-02 09:00:00 16.9 11 Nordeste 26 Norte 0 1005.7 1 81
2019-05-02 08:00:00 15.4 6 Este 22 Este 0 1005.6 0.8 88
2019-05-02 07:00:00 11.2 8 Este 11 Sudeste 0 1005.1 -0.2 94
2019-05-02 06:00:00 -- 9 Sudeste -- -- 0 1004.7 -0.7 --
2019-05-02 05:00:00 -- 9 Sudeste 11 Sudeste 0 1004.8 -1.4 --
2019-05-02 04:00:00 11.7 8 Sudeste 11 Sudeste 0 1005.3 -1.2 91
2019-05-02 03:00:00 -- 9 Sur -- -- 0 1005.4 -0.6 --
2019-05-02 02:00:00 12.5 10 Sur 13 Sur 0 1006.2 -0.1 93
2019-05-02 01:00:00 11.9 10 Sur 11 Sur 0 1006.5 0.3 91
2019-05-02 00:00:00 12.5 8 Sur 11 Sur 0 1006 0.2 88
2019-05-01 23:00:00 12.6 9 Sur 13 Sur 0 1006.3 0.9 87
2019-05-01 22:00:00 13.6 6 Sur 11 Sur 0 1006.2 0.9 83
2019-05-01 21:00:00 14.4 8 Sudoeste 13 Sur 0 1005.8 0.4 78
2019-05-01 20:00:00 17.6 11 Sur 18 Sudoeste 0 1005.4 -0.1 71
2019-05-01 19:00:00 18.6 12 Sur 30 Sur 0 1005.3 -0.6 62
2019-05-01 18:00:00 19.2 15 Sur 24 Sur 0 1005.4 -1 57
2019-05-01 17:00:00 19.6 14 Sudoeste 24 Sur 0 1005.5 -1.1 42
2019-05-01 16:00:00 19.9 14 Sur 22 Sudoeste 0 1005.9 -1.1 43
2019-05-01 15:00:00 19.6 14 Sudoeste 26 Sudoeste 0 1006.4 -0.7 45
2019-05-01 14:00:00 19.2 14 Sudoeste 24 Oeste 0 1006.6 -0.4 49
2019-05-01 13:00:00 19.2 16 Sudoeste 26 Oeste 0 1007 0.5 58
2019-05-01 12:00:00 18.9 15 Oeste 26 Oeste 0 1007.1 0.8 63
2019-05-01 11:00:00 18.3 14 Oeste 22 Oeste 0 1007 1.1 72
2019-05-01 10:00:00 17.7 9 Sudoeste 24 Oeste 0 1006.5 1.2 74
2019-05-01 09:00:00 15.9 13 Oeste 21 Oeste 0 1006.3 1 85
2019-05-01 08:00:00 13.4 5 Oeste 9 Oeste 0 1005.9 0.4 92
2019-05-01 07:00:00 11.4 7 Oeste 11 Oeste 0 1005.3 -0.2 95
2019-05-01 06:00:00 11.5 8 Noroeste 11 Oeste 0 1005.3 -0.7 94
2019-05-01 05:00:00 12.5 9 Noroeste 18 Oeste 0 1005.5 -1.1 94
2019-05-01 04:00:00 11.8 11 Oeste 18 Oeste 0 1005.5 -1.3 94
2019-05-01 03:00:00 11.3 12 Oeste 17 Oeste 0 1006 -1.2 93
2019-05-01 02:00:00 10.9 8 Oeste 13 Sudoeste 0 1006.6 -1.1 90
2019-05-01 01:00:00 12.3 10 Sudoeste 15 Sudoeste 0 1006.8 -0.8 93
2019-05-01 00:00:00 10.7 10 Oeste 13 Sudoeste 0 1007.2 0.1 91
2019-04-30 23:00:00 10.9 5 Oeste -- -- 0 1007.7 0.8 87
2019-04-30 22:00:00 11.4 9 Oeste -- -- 0 1007.6 0.7 82
2019-04-30 21:00:00 13.8 5 Sudoeste 11 Sudoeste 0 1007.1 -0.1 74
2019-04-30 20:00:00 16.5 10 Sudoeste 17 Sudoeste 0 1006.9 -0.3 63
2019-04-30 19:00:00 17.7 12 Sur 18 Sur 0 1006.9 -0.7 59
2019-04-30 18:00:00 18 11 Sudoeste 21 Sudoeste 0 1007.2 -0.6 55
2019-04-30 17:00:00 18.4 11 Sudoeste 21 Sudoeste 0 1007.2 -0.6 54
2019-04-30 16:00:00 19 9 Sur 21 Sudoeste 0 1007.6 -0.4 55
2019-04-30 15:00:00 17.9 12 Sur 21 Sur 0 1007.8 -0.3 61
2019-04-30 14:00:00 18.3 11 Sur 21 Sur 0 1007.8 -0.4 59
2019-04-30 13:00:00 19.5 12 Norte 22 Norte 0 1008 -0.8 51
2019-04-30 12:00:00 16.3 9 Norte 18 Norte 0 1008.1 -0.3 65
2019-04-30 11:00:00 14.1 14 Nordeste 30 Norte 0 1008.2 0.5 76
2019-04-30 10:00:00 14.2 27 Norte 37 Norte 0 1008.8 1.3 84
2019-04-30 09:00:00 13.7 19 Norte 26 Norte 0 1008.4 1.3 92
2019-04-30 08:00:00 12.6 7 Noroeste 15 Noroeste 0 1007.7 0.2 93
2019-04-30 07:00:00 12.2 8 Noroeste 21 Noroeste 0 1007.5 -0.2 92
2019-04-30 06:00:00 11.9 10 Oeste 17 Oeste 0.2 1007.1 -1 92
2019-04-30 05:00:00 11.1 10 Oeste 15 Oeste 0 1007.5 -1.3 94
2019-04-30 04:00:00 10.5 10 Oeste 17 Oeste 0 1007.7 -1.3 93
2019-04-30 03:00:00 9.4 12 Oeste -- -- 0 1008.1 -0.9 92
2019-04-30 02:00:00 9.4 9 Oeste 13 Oeste 0 1008.8 -0.4 91
2019-04-30 01:00:00 9.5 9 Oeste 11 Oeste 0 1009 -0.2 90
2019-04-30 00:00:00 9.1 9 Oeste 11 Noroeste 0 1009 0.2 89
2019-04-29 23:00:00 9.7 5 Noroeste -- -- 0 1009.2 0.8 87
2019-04-29 22:00:00 11.1 3 Norte 13 Este 0 1009.2 0.9 82
2019-04-29 21:00:00 12.1 10 Nordeste 17 Norte 0 1008.8 0.4 80
2019-04-29 20:00:00 15.2 12 Norte 21 Norte 0 1008.4 -0.1 69
2019-04-29 19:00:00 15.5 14 Norte 24 Norte 0 1008.3 -0.3 66
2019-04-29 18:00:00 16.1 16 Norte 32 Norte 0 1008.4 -0.7 62
2019-04-29 17:00:00 18 20 Norte 39 Norte 0 1008.5 -1 56
2019-04-29 16:00:00 18 27 Norte 42 Norte 0 1008.6 -1.1 55
2019-04-29 15:00:00 18 28 Norte 45 Norte 0 1009.1 -1 54
2019-04-29 14:00:00 18 26 Norte 45 Norte 0 1009.5 -0.7 54
2019-04-29 13:00:00 16.7 23 Norte 41 Norte 0 1009.7 -0.6 57
2019-04-29 12:00:00 15.4 31 Norte 45 Norte 0 1010.1 -0.3 61
2019-04-29 11:00:00 15.4 22 Norte 33 Norte 0 1010.2 0 68
2019-04-29 10:00:00 14.5 21 Norte 35 Norte 0 1010.3 0.4 76
2019-04-29 09:00:00 14.6 26 Norte 35 Norte 0 1010.4 0.5 71
2019-04-29 08:00:00 12.8 9 Norte 13 Norte 0 1010.2 0.1 77
2019-04-29 07:00:00 10 11 Norte 17 Norte 0 1009.9 -0.6 83
2019-04-29 06:00:00 10.5 11 Noroeste 13 Noroeste 0 1009.9 -0.9 82
2019-04-29 05:00:00 11.4 6 Noroeste 9 Noroeste 0 1010.1 -1.1 83
2019-04-29 04:00:00 11 7 Noroeste 11 Noroeste 0 1010.5 -0.9 88
2019-04-29 03:00:00 8.9 7 Noroeste -- -- 0 1010.8 -1.1 92
2019-04-29 02:00:00 8.6 7 Oeste -- -- 0 1011.2 -0.9 88
2019-04-29 01:00:00 10.2 -- -- -- -- 0 1011.4 -0.5 85
2019-04-29 00:00:00 11.8 8 Nordeste 13 Nordeste 0 1011.9 0.6 83
2019-04-28 23:00:00 10.9 9 Norte 13 Norte 0 1012.1 1.3 82
2019-04-28 22:00:00 12.3 9 Nordeste 17 Nordeste 0 1011.9 0.9 78
2019-04-28 21:00:00 13.1 12 Nordeste 15 Nordeste 0 1011.3 -0.1 75
2019-04-28 20:00:00 13.8 10 Este 21 Este 0 1010.8 -0.8 73
2019-04-28 19:00:00 14.4 12 Nordeste 18 Nordeste 0 1011 -1.2 70
2019-04-28 18:00:00 15.7 14 Nordeste 26 Este 0 1011.4 -1.6 66
2019-04-28 17:00:00 16.1 14 Nordeste 28 Este 0 1011.6 -1.7 64
2019-04-28 16:00:00 17.1 15 Este 26 Nordeste 0 1012.2 -1.6 62
2019-04-28 15:00:00 15.8 18 Nordeste 32 Nordeste 0 1013 -1 65
2019-04-28 14:00:00 16 20 Nordeste 33 Nordeste 0 1013.3 -0.9 65
2019-04-28 13:00:00 16.4 26 Nordeste 35 Nordeste 0 1013.8 -0.2 65
2019-04-28 12:00:00 16.8 25 Nordeste 35 Este 0 1014 0.1 65
2019-04-28 11:00:00 16.3 26 Nordeste 37 Nordeste 0 1014.2 0.2 68
2019-04-28 10:00:00 15.7 26 Nordeste 39 Nordeste 0 1014 0.3 70
2019-04-28 09:00:00 15 23 Nordeste 32 Este 0 1013.9 0.3 76
2019-04-28 08:00:00 13.7 13 Nordeste 22 Nordeste 0 1014 0.4 88
2019-04-28 07:00:00 11.8 12 Nordeste 17 Nordeste 0 1013.7 -0.1 94
2019-04-28 06:00:00 11.5 14 Nordeste 17 Nordeste 0 1013.6 -0.4 95
2019-04-28 05:00:00 10.2 13 Norte 15 Norte 0 1013.6 -0.9 94
2019-04-28 04:00:00 10.7 11 Norte 13 Norte 0 1013.8 -1.1 95
2019-04-28 03:00:00 10.4 7 Noroeste 9 Noroeste 0 1014 -1 95
2019-04-28 02:00:00 10.1 5 Noroeste -- -- 0 1014.5 -0.6 94
2019-04-28 01:00:00 10.2 5 Oeste -- -- 0 1014.9 0 92
2019-04-28 00:00:00 10.9 -- -- -- -- 0 1015 0.5 91
2019-04-27 23:00:00 -- 8 Sudoeste 9 Sudoeste 0 1015.1 0.8 --
2019-04-27 22:00:00 12.8 5 Sudoeste 8 Sudoeste 0 1014.9 0.6 88
2019-04-27 21:00:00 14.4 8 Oeste 15 Sudoeste 0 1014.5 0.2 87
2019-04-27 20:00:00 16.6 12 Sudoeste 21 Sudoeste 0 1014.3 -0.3 80
2019-04-27 19:00:00 17.5 16 Sudoeste 30 Oeste 0 1014.3 -0.8 74
2019-04-27 18:00:00 18.1 17 Sudoeste 28 Sudoeste 0 1014.3 -1.3 69
2019-04-27 17:00:00 18.2 19 Sudoeste 30 Sudoeste 0 1014.6 -1.4 65
2019-04-27 16:00:00 18.7 18 Sur -- -- -- 1015.1 -1.2 57
2019-04-27 15:00:00 18.7 17 Sur 28 Sur 0 1015.6 -0.7 56
2019-04-27 14:00:00 18.2 17 Sur 26 Sur 0 1016 -0.2 61
2019-04-27 13:00:00 18.1 13 Sur 21 Sur 0 1016.3 0.2 57
2019-04-27 12:00:00 18 11 Sur 26 Sudeste 0 1016.3 0.3 52
2019-04-27 11:00:00 18.1 12 Sur 21 Sur 0 1016.2 0.5 53
2019-04-27 10:00:00 16.7 12 Nordeste 22 Este 0 1016.1 0.8 62
2019-04-27 09:00:00 15.7 12 Nordeste 18 Este 0 1016 1.4 71
2019-04-27 08:00:00 12.5 8 Nordeste 11 Nordeste 0 1015.7 1 87
2019-04-27 07:00:00 8.3 3 Norte 9 Norte 0 1015.3 0.7 94
2019-04-27 06:00:00 7.8 4 Sur 5 Sur 0 1014.6 -0.3 92
2019-04-27 05:00:00 8.5 0 Calma 9 Sudeste 0 1014.7 -0.5 91
2019-04-27 04:00:00 11.1 10 Sudeste -- -- 0 1014.6 -0.9 91
2019-04-27 03:00:00 11 8 Sudeste 13 Sudeste 0 1014.9 -0.1 91
2019-04-27 02:00:00 10.8 10 Este 11 Este 0 1015.2 0.6 90
2019-04-27 01:00:00 10.7 5 Nordeste -- -- 0 1015.5 1.7 87
2019-04-27 00:00:00 12 8 Nordeste 11 Este 0 1015 1.8 86
2019-04-26 23:00:00 12.1 9 Nordeste 13 Este 0 1014.6 1.9 81
2019-04-26 22:00:00 12.1 5 Este 13 Norte 0 1013.8 1.8 80
2019-04-26 21:00:00 13.6 12 Nordeste 18 Norte 0 1013.2 1.5 74
2019-04-26 20:00:00 16.9 13 Norte 24 Norte 0 1012.7 1.2 51
2019-04-26 19:00:00 18.6 15 Norte 26 Noroeste 0 1012 0.4 44
2019-04-26 18:00:00 19.7 14 Noroeste 33 Norte 0 1011.7 0 40
2019-04-26 17:00:00 20.2 14 Noroeste 37 Noroeste 0 1011.5 0 37
2019-04-26 16:00:00 20 21 Noroeste 39 Noroeste 0 1011.6 0.3 37
2019-04-26 15:00:00 19.9 21 Noroeste 42 Oeste 0 1011.7 0.8 38
2019-04-26 14:00:00 18.5 29 Oeste 45 Oeste 0 1011.5 1.1 51
2019-04-26 13:00:00 19.1 26 Oeste 41 Oeste 0 1011.3 1.5 49
2019-04-26 12:00:00 19.2 19 Noroeste 39 Noroeste 0 1010.9 1.7 40
2019-04-26 11:00:00 18.6 19 Oeste 35 Noroeste 0 1010.4 2 47
2019-04-26 10:00:00 17.6 18 Noroeste 35 Noroeste 0 1009.8 2.1 52
2019-04-26 09:00:00 16.3 15 Oeste 28 Oeste 0 1009.2 2.2 73
2019-04-26 08:00:00 14.6 10 Oeste 17 Noroeste 0 1008.4 1.6 89
2019-04-26 07:00:00 13.5 9 Oeste 17 Oeste 0 1007.7 1 93
2019-04-26 06:00:00 14.4 12 Oeste 26 Oeste 0 1007 0.4 92
2019-04-26 05:00:00 14.6 11 Sudoeste 26 Sudoeste 0 1006.8 0.1 93
2019-04-26 04:00:00 14.9 17 Sudoeste 28 Sudoeste 0 1006.7 0.1 93
2019-04-26 03:00:00 14.7 13 Oeste 22 Sudoeste 0 1006.6 0.5 94
2019-04-26 02:00:00 14.6 8 Sur 18 Sudoeste 0 1006.7 1.3 93
2019-04-26 01:00:00 14.5 11 Sudoeste 18 Sudoeste 0 1006.6 1.2 92
2019-04-26 00:00:00 14.5 13 Sur 21 Sudoeste 0 1006.1 1.5 91